Time;durP1;ratioP1;P1;durP2;ratioP2;P2;SDS_P1;SDS_P2;PMS_P1;PMS_P2;Temp;Humidity;BMP_temperature;BMP_pressure;BME280_temperature;BME280_humidity;BME280_pressure;Samples;Min_cycle;Max_cycle;Signal;HPM_P1;HPM_P2
2022/04/10 00:01:32;;;;;;;5.25;3.50;;;;;;;;;;5030261;28;20289;-80
2022/04/10 00:03:59;;;;;;;8.30;3.10;;;;;;;;;;5030581;28;20202;-80
2022/04/10 00:06:26;;;;;;;4.22;3.13;;;;;;;;;;5030763;28;20202;-79
2022/04/10 00:08:54;;;;;;;5.97;3.50;;;;;;;;;;5030931;28;20226;-80
2022/04/10 00:11:21;;;;;;;8.88;3.30;;;;;;;;;;5006713;28;20196;-80
2022/04/10 00:13:48;;;;;;;4.95;3.60;;;;;;;;;;5012771;28;20664;-80
2022/04/10 00:16:17;;;;;;;5.30;3.40;;;;;;;;;;5012829;28;20204;-80
2022/04/10 00:18:44;;;;;;;7.53;3.10;;;;;;;;;;5017788;28;20219;-80
2022/04/10 00:21:11;;;;;;;7.28;3.80;;;;;;;;;;5018285;28;20322;-80
2022/04/10 00:23:39;;;;;;;5.10;3.40;;;;;;;;;;5030062;28;20203;-80
2022/04/10 00:26:06;;;;;;;5.10;3.08;;;;;;;;;;5030223;28;20223;-80
2022/04/10 00:28:33;;;;;;;5.68;3.08;;;;;;;;;;5030485;28;20310;-80
2022/04/10 00:31:00;;;;;;;6.95;3.45;;;;;;;;;;5030931;28;20223;-80
2022/04/10 00:33:29;;;;;;;5.30;3.47;;;;;;;;;;5025017;28;20540;-80
2022/04/10 00:35:56;;;;;;;6.40;3.38;;;;;;;;;;5013121;28;20522;-80
2022/04/10 00:38:23;;;;;;;4.93;3.30;;;;;;;;;;5012430;28;20220;-79
2022/04/10 00:40:50;;;;;;;6.95;3.67;;;;;;;;;;5017531;28;20200;-80
2022/04/10 00:43:17;;;;;;;5.80;3.30;;;;;;;;;;5018262;28;20566;-79
2022/04/10 00:45:45;;;;;;;6.43;3.80;;;;;;;;;;5010813;28;20204;-79
2022/04/10 00:48:12;;;;;;;4.97;3.50;;;;;;;;;;5011980;28;20220;-79
2022/04/10 00:51:40;;;;;;;6.20;3.90;;;;;;;;;;5014484;28;20250;-79
2022/04/10 00:53:28;;;;;;;5.30;3.53;;;;;;;;;;5000332;28;20266;-79
2022/04/10 00:55:56;;;;;;;5.40;3.40;;;;;;;;;;5014823;28;20669;-80
2022/04/10 00:58:23;;;;;;;4.50;3.20;;;;;;;;;;5016175;28;20719;-80
2022/04/10 01:00:51;;;;;;;5.65;3.38;;;;;;;;;;5016286;28;20667;-81
2022/04/10 01:03:18;;;;;;;6.70;4.13;;;;;;;;;;5021580;28;20200;-81
2022/04/10 01:05:47;;;;;;;9.40;3.90;;;;;;;;;;5021552;28;20218;-80
2022/04/10 01:08:14;;;;;;;6.60;3.30;;;;;;;;;;5013676;28;20251;-80
2022/04/10 01:10:43;;;;;;;7.65;3.83;;;;;;;;;;5014069;28;20224;-80
2022/04/10 01:13:10;;;;;;;8.30;3.65;;;;;;;;;;5014251;28;20200;-79
2022/04/10 01:15:38;;;;;;;9.32;4.00;;;;;;;;;;5014697;28;20587;-80
2022/04/10 01:18:06;;;;;;;12.68;4.50;;;;;;;;;;4996839;28;20216;-79
2022/04/10 01:20:34;;;;;;;7.65;3.58;;;;;;;;;;5016108;28;20215;-80
2022/04/10 01:23:02;;;;;;;10.32;4.10;;;;;;;;;;5017014;28;20542;-79
2022/04/10 01:25:30;;;;;;;7.38;3.70;;;;;;;;;;5021776;28;20203;-79
2022/04/10 01:28:01;;;;;;;5.15;3.17;;;;;;;;;;5021996;28;21338;-80
2022/04/10 01:30:29;;;;;;;6.20;3.67;;;;;;;;;;5032807;28;20223;-80
2022/04/10 01:32:57;;;;;;;6.57;3.72;;;;;;;;;;5033262;28;20221;-79
2022/04/10 01:35:25;;;;;;;6.25;3.72;;;;;;;;;;5033581;28;20238;-79
2022/04/10 01:37:53;;;;;;;4.28;3.20;;;;;;;;;;5033834;28;20251;-79
2022/04/10 01:40:21;;;;;;;4.40;3.45;;;;;;;;;;5026105;28;20200;-79
2022/04/10 01:42:48;;;;;;;5.65;3.90;;;;;;;;;;5015521;28;20200;-79
2022/04/10 01:45:16;;;;;;;9.10;3.53;;;;;;;;;;5015348;28;20196;-79
2022/04/10 01:47:43;;;;;;;6.40;4.10;;;;;;;;;;5020710;28;20222;-79
2022/04/10 01:50:11;;;;;;;6.15;3.30;;;;;;;;;;5020755;28;20242;-79
2022/04/10 01:52:38;;;;;;;4.10;3.25;;;;;;;;;;5012944;28;20224;-79
2022/04/10 01:55:05;;;;;;;7.63;4.07;;;;;;;;;;5013130;28;20204;-78
2022/04/10 01:57:34;;;;;;;6.70;4.40;;;;;;;;;;5013156;28;20200;-79
2022/04/10 02:00:01;;;;;;;7.95;3.63;;;;;;;;;;5013116;28;20208;-79
2022/04/10 02:02:28;;;;;;;5.05;3.38;;;;;;;;;;5013594;28;20230;-79
2022/04/10 02:04:55;;;;;;;6.32;3.80;;;;;;;;;;5014954;28;20219;-79
2022/04/10 02:07:22;;;;;;;4.95;3.72;;;;;;;;;;5014982;28;20207;-79
2022/04/10 02:09:49;;;;;;;6.50;3.53;;;;;;;;;;5019944;28;20230;-79
2022/04/10 02:12:17;;;;;;;5.10;3.70;;;;;;;;;;5020442;28;20207;-79
2022/04/10 02:14:45;;;;;;;6.97;4.13;;;;;;;;;;5013106;28;20207;-79
2022/04/10 02:17:12;;;;;;;5.88;3.85;;;;;;;;;;5012721;28;20200;-79
2022/04/10 02:19:39;;;;;;;5.38;4.03;;;;;;;;;;5012843;28;20216;-79
2022/04/10 02:22:06;;;;;;;6.18;3.70;;;;;;;;;;5013248;28;20200;-79
2022/04/10 02:24:34;;;;;;;6.20;3.75;;;;;;;;;;5012675;28;20200;-78
2022/04/10 02:27:01;;;;;;;8.57;4.28;;;;;;;;;;5014752;28;20215;-79
2022/04/10 02:29:28;;;;;;;7.53;4.03;;;;;;;;;;5014484;28;20234;-79
2022/04/10 02:31:56;;;;;;;4.60;3.60;;;;;;;;;;5019418;28;20225;-79
2022/04/10 02:34:24;;;;;;;4.90;3.88;;;;;;;;;;5020009;28;20191;-79
2022/04/10 02:36:51;;;;;;;5.35;4.13;;;;;;;;;;5012375;28;20231;-79
2022/04/10 02:39:18;;;;;;;5.28;4.10;;;;;;;;;;5012110;28;20274;-79
2022/04/10 02:41:46;;;;;;;6.35;3.58;;;;;;;;;;5012402;28;20658;-79
2022/04/10 02:44:13;;;;;;;7.60;4.07;;;;;;;;;;5013145;28;20200;-80
2022/04/10 02:46:40;;;;;;;7.50;3.53;;;;;;;;;;5012445;28;20581;-79
2022/04/10 02:49:08;;;;;;;6.40;4.00;;;;;;;;;;5013962;28;20232;-79
2022/04/10 02:51:35;;;;;;;7.65;4.45;;;;;;;;;;5014147;28;20204;-79
2022/04/10 02:54:02;;;;;;;4.50;3.88;;;;;;;;;;5018710;28;20196;-79
2022/04/10 02:56:30;;;;;;;7.20;3.65;;;;;;;;;;5019859;28;20199;-79
2022/04/10 02:58:57;;;;;;;10.52;4.50;;;;;;;;;;5030255;28;20216;-80
2022/04/10 03:01:24;;;;;;;6.68;4.25;;;;;;;;;;5031899;28;20209;-79
2022/04/10 03:03:53;;;;;;;8.07;4.20;;;;;;;;;;5031651;28;20246;-79
2022/04/10 03:06:21;;;;;;;6.38;3.92;;;;;;;;;;5032196;28;20203;-80
2022/04/10 03:08:48;;;;;;;8.93;3.50;;;;;;;;;;5027614;28;20222;-79
2022/04/10 03:11:15;;;;;;;8.30;4.15;;;;;;;;;;5012953;28;20220;-79
2022/04/10 03:13:43;;;;;;;7.95;3.97;;;;;;;;;;5013819;28;20200;-79
2022/04/10 03:16:10;;;;;;;7.00;3.60;;;;;;;;;;5018176;28;20199;-79
2022/04/10 03:18:38;;;;;;;5.78;3.90;;;;;;;;;;5018981;28;20464;-79
2022/04/10 03:21:05;;;;;;;5.35;3.72;;;;;;;;;;5029729;28;20669;-80
2022/04/10 03:23:33;;;;;;;4.85;3.40;;;;;;;;;;5031544;28;20823;-79
2022/04/10 03:26:00;;;;;;;7.50;3.90;;;;;;;;;;5031392;28;20199;-80
2022/04/10 03:28:28;;;;;;;5.50;3.72;;;;;;;;;;5031875;28;20227;-81
2022/04/10 03:30:55;;;;;;;8.07;4.70;;;;;;;;;;5027785;28;20220;-80
2022/04/10 03:33:22;;;;;;;6.32;3.80;;;;;;;;;;5013321;28;20204;-80
2022/04/10 03:35:49;;;;;;;3.72;3.30;;;;;;;;;;5013487;28;20203;-80
2022/04/10 03:38:16;;;;;;;5.35;3.30;;;;;;;;;;5017624;28;20223;-81
2022/04/10 03:40:45;;;;;;;5.00;3.35;;;;;;;;;;5018942;28;20202;-81
2022/04/10 03:43:12;;;;;;;4.25;3.35;;;;;;;;;;5028417;28;20203;-79
2022/04/10 03:45:39;;;;;;;5.75;3.47;;;;;;;;;;5030697;28;20278;-80
2022/04/10 03:48:07;;;;;;;7.28;3.53;;;;;;;;;;5030830;28;20720;-79
2022/04/10 03:50:34;;;;;;;3.80;3.33;;;;;;;;;;5031013;28;20700;-79
2022/04/10 03:53:01;;;;;;;6.15;3.80;;;;;;;;;;5028396;28;20195;-79
2022/04/10 03:55:29;;;;;;;6.07;4.20;;;;;;;;;;5017492;28;20208;-79
2022/04/10 03:57:57;;;;;;;8.48;3.90;;;;;;;;;;5018615;28;21069;-79
2022/04/10 04:00:24;;;;;;;7.10;4.45;;;;;;;;;;5028012;28;20699;-80
2022/04/10 04:02:52;;;;;;;8.70;4.28;;;;;;;;;;5030936;28;20203;-80
2022/04/10 04:05:19;;;;;;;8.95;4.80;;;;;;;;;;5013381;28;20575;-80
2022/04/10 04:07:46;;;;;;;4.80;4.13;;;;;;;;;;5031225;28;20223;-80
2022/04/10 04:10:14;;;;;;;6.75;4.60;;;;;;;;;;5028288;28;20215;-81
2022/04/10 04:12:41;;;;;;;5.68;4.63;;;;;;;;;;5012819;28;20226;-79
2022/04/10 04:15:11;;;;;;;7.38;4.47;;;;;;;;;;5012693;28;20207;-79
2022/04/10 04:17:38;;;;;;;7.82;3.97;;;;;;;;;;5016711;28;20207;-79
2022/04/10 04:20:06;;;;;;;6.28;4.93;;;;;;;;;;5018953;28;20649;-80
2022/04/10 04:22:33;;;;;;;9.13;4.10;;;;;;;;;;5026922;28;20200;-78
2022/04/10 04:25:00;;;;;;;11.32;4.80;;;;;;;;;;5030181;28;20297;-79
2022/04/10 04:27:28;;;;;;;7.45;4.90;;;;;;;;;;5030882;28;20203;-79
2022/04/10 04:29:55;;;;;;;5.82;4.22;;;;;;;;;;5030997;28;20215;-79
2022/04/10 04:32:23;;;;;;;8.93;5.10;;;;;;;;;;5030008;28;20202;-80
2022/04/10 04:34:50;;;;;;;9.10;4.95;;;;;;;;;;5012750;28;20218;-79
2022/04/10 04:37:17;;;;;;;8.15;5.28;;;;;;;;;;5012583;28;20260;-79
2022/04/10 04:39:45;;;;;;;7.55;5.82;;;;;;;;;;5015657;28;20216;-79
2022/04/10 04:42:12;;;;;;;7.13;5.32;;;;;;;;;;5017724;28;20206;-80
2022/04/10 04:44:39;;;;;;;7.10;5.10;;;;;;;;;;5025696;28;20203;-80
2022/04/10 04:47:06;;;;;;;11.15;5.35;;;;;;;;;;5030224;28;20203;-80
2022/04/10 04:49:35;;;;;;;7.53;4.88;;;;;;;;;;5029916;28;20239;-80
2022/04/10 04:52:02;;;;;;;8.38;5.25;;;;;;;;;;5030760;28;20532;-81
2022/04/10 04:54:30;;;;;;;6.80;5.10;;;;;;;;;;5030288;28;20195;-80
2022/04/10 04:56:57;;;;;;;8.98;5.40;;;;;;;;;;5012303;28;20200;-80
2022/04/10 04:59:26;;;;;;;10.10;6.18;;;;;;;;;;5012772;28;20236;-79
2022/04/10 05:01:54;;;;;;;9.73;5.10;;;;;;;;;;5017638;28;20211;-80
2022/04/10 05:04:21;;;;;;;9.95;5.63;;;;;;;;;;5016906;28;20196;-80
2022/04/10 05:06:50;;;;;;;9.95;5.72;;;;;;;;;;5010250;28;20553;-80
2022/04/10 05:09:17;;;;;;;7.47;5.50;;;;;;;;;;5009845;28;20220;-81
2022/04/10 05:11:44;;;;;;;8.43;6.13;;;;;;;;;;5010813;28;20216;-81
2022/04/10 05:14:11;;;;;;;5.88;5.10;;;;;;;;;;5010737;28;20204;-81
2022/04/10 05:16:38;;;;;;;6.80;5.40;;;;;;;;;;5010908;28;20207;-81
2022/04/10 05:19:05;;;;;;;8.32;5.40;;;;;;;;;;5012098;28;20577;-82
2022/04/10 05:21:33;;;;;;;6.55;4.78;;;;;;;;;;5012092;28;20215;-80
2022/04/10 05:24:01;;;;;;;7.70;5.18;;;;;;;;;;5017766;28;20572;-80
2022/04/10 05:26:29;;;;;;;11.35;5.90;;;;;;;;;;5017695;28;20298;-81
2022/04/10 05:28:56;;;;;;;8.65;5.88;;;;;;;;;;5009582;28;20255;-81
2022/04/10 05:31:24;;;;;;;10.20;5.68;;;;;;;;;;5009798;28;20223;-80
2022/04/10 05:33:53;;;;;;;8.15;5.65;;;;;;;;;;5010496;28;20584;-81
2022/04/10 05:36:21;;;;;;;8.98;5.85;;;;;;;;;;5013734;28;20617;-81
2022/04/10 05:38:48;;;;;;;10.38;5.25;;;;;;;;;;5013881;28;20244;-81
2022/04/10 05:41:16;;;;;;;8.90;5.68;;;;;;;;;;5015629;28;20223;-80
2022/04/10 05:43:43;;;;;;;9.60;6.07;;;;;;;;;;5015464;28;20192;-80
2022/04/10 05:46:11;;;;;;;8.68;5.90;;;;;;;;;;5020517;28;20187;-80
2022/04/10 05:48:39;;;;;;;6.72;4.80;;;;;;;;;;5020410;28;20231;-80
2022/04/10 05:51:08;;;;;;;7.90;4.57;;;;;;;;;;5031898;28;20215;-80
2022/04/10 05:53:35;;;;;;;9.60;5.40;;;;;;;;;;5033122;28;20597;-81
2022/04/10 05:56:05;;;;;;;6.45;5.32;;;;;;;;;;5033238;28;20203;-81
2022/04/10 05:58:33;;;;;;;8.65;4.90;;;;;;;;;;5033690;28;20219;-81
2022/04/10 06:01:01;;;;;;;8.40;5.13;;;;;;;;;;5027771;28;20204;-81
2022/04/10 06:03:28;;;;;;;8.65;4.90;;;;;;;;;;5014991;28;20196;-81
2022/04/10 06:05:55;;;;;;;7.90;5.10;;;;;;;;;;5015207;28;20226;-81
2022/04/10 06:08:22;;;;;;;8.90;4.38;;;;;;;;;;5012840;28;20230;-81
2022/04/10 06:10:49;;;;;;;5.68;4.75;;;;;;;;;;5017748;28;20223;-80
2022/04/10 06:13:17;;;;;;;5.97;4.32;;;;;;;;;;5030354;28;20644;-80
2022/04/10 06:15:46;;;;;;;7.85;5.28;;;;;;;;;;5032768;28;20248;-82
2022/04/10 06:18:13;;;;;;;10.40;4.50;;;;;;;;;;5032824;28;20321;-80
2022/04/10 06:20:40;;;;;;;9.02;5.43;;;;;;;;;;5033451;28;20653;-81
2022/04/10 06:23:07;;;;;;;4.70;4.00;;;;;;;;;;5029872;28;20212;-80
2022/04/10 06:25:36;;;;;;;6.93;5.47;;;;;;;;;;5015197;28;20200;-82
2022/04/10 06:28:03;;;;;;;6.50;4.40;;;;;;;;;;4998365;28;20216;-81
2022/04/10 06:30:30;;;;;;;8.13;5.00;;;;;;;;;;5018980;28;20604;-80
2022/04/10 06:32:59;;;;;;;5.40;3.90;;;;;;;;;;5020649;28;20484;-80
2022/04/10 06:35:26;;;;;;;5.10;4.33;;;;;;;;;;5014179;28;20455;-80
2022/04/10 06:37:53;;;;;;;6.93;4.63;;;;;;;;;;5013390;28;20467;-83
2022/04/10 06:40:21;;;;;;;8.30;4.80;;;;;;;;;;5013539;28;20457;-80
2022/04/10 06:42:49;;;;;;;6.80;4.30;;;;;;;;;;5013421;28;20477;-81
2022/04/10 06:45:16;;;;;;;6.50;4.27;;;;;;;;;;5013303;28;20917;-82
2022/04/10 06:47:44;;;;;;;5.73;3.63;;;;;;;;;;5014508;28;20498;-76
2022/04/10 06:50:13;;;;;;;9.33;5.27;;;;;;;;;;5013996;28;20478;-78
2022/04/10 06:52:41;;;;;;;8.83;5.20;;;;;;;;;;5017749;28;20471;-81
2022/04/10 06:55:08;;;;;;;6.63;4.80;;;;;;;;;;5019862;28;20443;-80
2022/04/10 06:57:35;;;;;;;5.20;4.00;;;;;;;;;;5028825;28;20438;-78
2022/04/10 07:00:03;;;;;;;9.60;4.40;;;;;;;;;;5032689;28;20438;-81
2022/04/10 07:02:30;;;;;;;5.00;4.20;;;;;;;;;;5032885;28;20438;-78
2022/04/10 07:04:57;;;;;;;6.07;3.80;;;;;;;;;;5033292;28;20449;-79
2022/04/10 07:07:25;;;;;;;8.23;4.87;;;;;;;;;;5032015;28;20469;-81
2022/04/10 07:09:53;;;;;;;5.03;4.43;;;;;;;;;;5014116;28;20936;-81
2022/04/10 07:12:20;;;;;;;10.87;4.80;;;;;;;;;;5014587;28;20991;-80
2022/04/10 07:14:47;;;;;;;4.93;4.10;;;;;;;;;;5017436;28;20447;-81
2022/04/10 07:17:15;;;;;;;6.03;5.00;;;;;;;;;;5019514;28;20449;-80
2022/04/10 07:19:42;;;;;;;6.23;5.07;;;;;;;;;;5026335;28;20541;-81
2022/04/10 07:24:51;;;;;;;7.30;4.97;;;;;;;;;;5030387;28;21047;-80
2022/04/10 07:27:19;;;;;;;5.97;4.50;;;;;;;;;;5031887;28;20482;-79
2022/04/10 07:29:46;;;;;;;5.50;4.77;;;;;;;;;;5031072;28;20445;-79
2022/04/10 07:32:13;;;;;;;7.77;5.33;;;;;;;;;;5013312;28;20820;-78
2022/04/10 07:34:40;;;;;;;7.87;4.97;;;;;;;;;;5013544;28;20427;-80
2022/04/10 07:37:07;;;;;;;9.17;5.37;;;;;;;;;;5016034;28;20475;-80
2022/04/10 07:39:34;;;;;;;6.97;4.70;;;;;;;;;;5018829;28;20473;-80
2022/04/10 07:42:03;;;;;;;6.13;4.60;;;;;;;;;;5015337;28;20815;-80
2022/04/10 07:44:30;;;;;;;6.23;5.43;;;;;;;;;;5011321;28;20450;-80
2022/04/10 07:49:38;;;;;;;7.83;4.93;;;;;;;;;;5010115;28;20475;-80
2022/04/10 07:52:06;;;;;;;7.13;5.40;;;;;;;;;;5011579;28;20884;-81
2022/04/10 07:54:33;;;;;;;6.70;4.50;;;;;;;;;;5012738;28;20545;-80
2022/04/10 07:57:00;;;;;;;6.00;5.10;;;;;;;;;;5012808;28;20458;-80
2022/04/10 07:59:29;;;;;;;6.83;4.40;;;;;;;;;;5015285;28;21568;-78
2022/04/10 08:01:56;;;;;;;6.93;5.57;;;;;;;;;;5018203;28;20430;-80
2022/04/10 08:04:23;;;;;;;8.00;5.63;;;;;;;;;;5014393;28;20484;-79
2022/04/10 08:06:50;;;;;;;8.07;5.40;;;;;;;;;;5011220;28;20451;-78
2022/04/10 08:09:18;;;;;;;5.70;4.20;;;;;;;;;;5011403;28;20463;-77
2022/04/10 08:11:45;;;;;;;5.97;4.40;;;;;;;;;;5011579;28;20482;-80
2022/04/10 08:14:12;;;;;;;7.47;4.03;;;;;;;;;;5011463;28;20660;-80
2022/04/10 08:16:41;;;;;;;6.87;3.87;;;;;;;;;;5012096;28;20478;-79
2022/04/10 08:19:08;;;;;;;5.33;3.80;;;;;;;;;;5013114;28;20502;-79
2022/04/10 08:21:35;;;;;;;7.93;4.20;;;;;;;;;;5014515;28;20450;-82
2022/04/10 08:24:04;;;;;;;6.80;3.90;;;;;;;;;;5018673;28;20533;-78
2022/04/10 08:26:32;;;;;;;5.47;3.47;;;;;;;;;;5015226;28;20446;-79
2022/04/10 08:29:00;;;;;;;9.50;4.50;;;;;;;;;;5010643;28;20467;-80
2022/04/10 08:31:28;;;;;;;6.57;3.50;;;;;;;;;;5010532;28;20846;-79
2022/04/10 08:33:57;;;;;;;8.20;4.10;;;;;;;;;;5010875;28;20455;-79
2022/04/10 08:36:24;;;;;;;5.93;3.80;;;;;;;;;;5011039;28;20474;-79
2022/04/10 08:38:51;;;;;;;8.87;4.67;;;;;;;;;;5011549;28;20847;-79
2022/04/10 08:41:20;;;;;;;4.77;4.07;;;;;;;;;;5012440;28;20446;-80
2022/04/10 08:43:47;;;;;;;8.73;4.03;;;;;;;;;;5013117;28;20439;-79
2022/04/10 08:46:15;;;;;;;4.40;3.87;;;;;;;;;;5018217;28;20451;-80
2022/04/10 08:48:43;;;;;;;6.70;3.20;;;;;;;;;;5016400;28;20477;-76
2022/04/10 08:51:11;;;;;;;6.13;3.30;;;;;;;;;;5010097;28;21061;-78
2022/04/10 08:53:40;;;;;;;6.70;3.00;;;;;;;;;;5010363;28;20948;-79
2022/04/10 08:56:08;;;;;;;5.07;3.27;;;;;;;;;;5010573;28;20465;-78
2022/04/10 08:58:35;;;;;;;6.20;3.80;;;;;;;;;;5010254;28;20676;-77
2022/04/10 09:01:02;;;;;;;4.60;2.90;;;;;;;;;;5010833;28;20463;-77
2022/04/10 09:03:30;;;;;;;6.87;4.00;;;;;;;;;;5016742;28;20453;-78
2022/04/10 09:06:06;;;;;;;3.90;2.80;;;;;;;;;;5017305;28;20492;-79
2022/04/10 09:08:34;;;;;;;5.43;3.20;;;;;;;;;;4990021;28;20498;-78
2022/04/10 09:11:02;;;;;;;5.03;3.20;;;;;;;;;;4992061;28;20447;-78
2022/04/10 09:13:31;;;;;;;6.40;2.57;;;;;;;;;;4994815;28;20448;-79
2022/04/10 09:16:02;;;;;;;2.43;2.10;;;;;;;;;;4995187;28;20806;-80
2022/04/10 09:18:30;;;;;;;5.40;3.00;;;;;;;;;;5000936;28;20998;-78
2022/04/10 09:21:07;;;;;;;10.60;3.40;;;;;;;;;;5015722;28;20810;-80
2022/04/10 09:23:35;;;;;;;9.67;2.70;;;;;;;;;;5015700;28;20447;-81
2022/04/10 09:26:06;;;;;;;8.63;3.10;;;;;;;;;;5020720;28;20443;-81
2022/04/10 09:28:55;;;;;;;4.10;3.17;;;;;;;;;;5047022;23;20881;-81
2022/04/10 09:31:29;;;;;;;4.50;2.80;;;;;;;;;;5014107;28;20502;-81
2022/04/10 09:33:56;;;;;;;5.13;3.63;;;;;;;;;;5015568;28;20450;-82
2022/04/10 09:36:32;;;;;;;7.40;3.07;;;;;;;;;;5015895;28;20451;-77
2022/04/10 09:39:01;;;;;;;5.17;3.00;;;;;;;;;;5015300;28;21009;-79
2022/04/10 09:41:28;;;;;;;4.47;3.10;;;;;;;;;;5024345;28;20469;-80
2022/04/10 09:43:59;;;;;;;6.17;3.30;;;;;;;;;;5035228;28;20449;-81
2022/04/10 09:46:27;;;;;;;5.20;3.20;;;;;;;;;;5035088;28;20801;-78
2022/04/10 09:48:54;;;;;;;6.50;3.17;;;;;;;;;;5022483;28;20447;-81
2022/04/10 09:51:21;;;;;;;7.90;3.87;;;;;;;;;;5020658;28;20439;-78
2022/04/10 09:54:04;;;;;;;6.77;3.53;;;;;;;;;;5013294;28;20641;-78
2022/04/10 09:56:31;;;;;;;6.70;3.53;;;;;;;;;;5012884;28;20453;-79
2022/04/10 09:59:00;;;;;;;5.67;3.40;;;;;;;;;;5013225;28;20494;-78
2022/04/10 10:01:27;;;;;;;6.47;3.77;;;;;;;;;;5013826;28;20450;-79
2022/04/10 10:03:56;;;;;;;7.73;3.60;;;;;;;;;;5003800;28;20462;-78
2022/04/10 10:06:23;;;;;;;7.00;3.50;;;;;;;;;;5034513;28;20450;-79
2022/04/10 10:08:51;;;;;;;4.90;3.17;;;;;;;;;;5034740;28;20454;-78
2022/04/10 10:11:20;;;;;;;9.10;3.13;;;;;;;;;;5022741;28;20800;-79
2022/04/10 10:13:48;;;;;;;5.57;3.10;;;;;;;;;;5020644;28;20438;-79
2022/04/10 10:16:16;;;;;;;5.57;3.43;;;;;;;;;;5030851;28;20454;-80
2022/04/10 10:18:45;;;;;;;4.03;2.60;;;;;;;;;;5015085;28;20466;-77
2022/04/10 10:21:13;;;;;;;5.80;3.20;;;;;;;;;;5032120;28;20523;-78
2022/04/10 10:23:42;;;;;;;6.87;3.00;;;;;;;;;;5032991;28;20446;-82
2022/04/10 10:26:12;;;;;;;3.77;2.53;;;;;;;;;;5032558;28;20454;-76
2022/04/10 10:28:59;;;;;;;4.63;2.90;;;;;;;;;;5034370;28;20508;-82
2022/04/10 10:31:38;;;;;;;3.60;3.07;;;;;;;;;;5034596;28;20460;-82
2022/04/10 10:34:06;;;;;;;6.43;3.40;;;;;;;;;;5020361;28;20438;-83
2022/04/10 10:36:34;;;;;;;3.67;2.60;;;;;;;;;;5020209;28;20442;-81
2022/04/10 10:39:01;;;;;;;4.93;3.10;;;;;;;;;;5011758;28;20475;-80
2022/04/10 10:41:31;;;;;;;3.60;2.40;;;;;;;;;;5012107;28;20454;-80
2022/04/10 10:44:15;;;;;;;6.10;3.40;;;;;;;;;;4995178;28;20438;-80
2022/04/10 10:46:57;;;;;;;3.07;2.77;;;;;;;;;;5012545;28;20453;-80
2022/04/10 10:49:24;;;;;;;5.27;3.10;;;;;;;;;;5023750;28;20485;-80
2022/04/10 10:51:52;;;;;;;4.13;2.30;;;;;;;;;;5023924;28;20470;-82
2022/04/10 10:54:21;;;;;;;6.70;3.40;;;;;;;;;;5002621;28;20476;-79
2022/04/10 10:56:50;;;;;;;5.07;2.90;;;;;;;;;;5029492;28;20453;-82
2022/04/10 10:59:23;;;;;;;4.00;2.90;;;;;;;;;;5031493;28;20480;-80
2022/04/10 11:01:53;;;;;;;2.70;2.30;;;;;;;;;;5014945;28;20957;-81
2022/04/10 11:04:21;;;;;;;5.73;3.20;;;;;;;;;;5033658;28;20442;-80
2022/04/10 11:06:49;;;;;;;3.63;2.80;;;;;;;;;;5009486;28;20541;-77
2022/04/10 11:09:24;;;;;;;5.87;2.73;;;;;;;;;;5015815;28;20469;-77
2022/04/10 11:11:51;;;;;;;6.60;3.60;;;;;;;;;;5001162;28;20956;-80
2022/04/10 11:14:34;;;;;;;5.07;3.10;;;;;;;;;;5027848;28;20453;-77
2022/04/10 11:17:15;;;;;;;5.20;3.20;;;;;;;;;;5027449;28;20935;-81
2022/04/10 11:19:45;;;;;;;7.93;3.27;;;;;;;;;;5010657;28;20516;-83
2022/04/10 11:22:14;;;;;;;3.80;2.83;;;;;;;;;;5028283;28;20450;-77
2022/04/10 11:24:41;;;;;;;5.23;3.40;;;;;;;;;;5029806;28;20908;-83
2022/04/10 11:27:13;;;;;;;5.23;2.70;;;;;;;;;;5030769;28;20449;-79
2022/04/10 11:29:43;;;;;;;3.23;2.47;;;;;;;;;;5025730;28;20566;-80
2022/04/10 11:32:17;;;;;;;5.37;2.90;;;;;;;;;;4996822;28;20471;-81
2022/04/10 11:34:44;;;;;;;4.33;2.83;;;;;;;;;;5012434;28;20460;-83
2022/04/10 11:37:18;;;;;;;5.67;2.63;;;;;;;;;;5008379;28;20452;-81
2022/04/10 11:39:46;;;;;;;2.80;2.40;;;;;;;;;;5008078;28;20495;-79
2022/04/10 11:42:13;;;;;;;6.60;3.23;;;;;;;;;;5007960;28;20963;-82
2022/04/10 11:44:41;;;;;;;4.53;2.87;;;;;;;;;;5008505;28;20448;-82
2022/04/10 11:47:09;;;;;;;4.13;2.40;;;;;;;;;;5005801;28;20450;-82
2022/04/10 11:49:39;;;;;;;3.83;2.60;;;;;;;;;;5029692;28;20480;-79
2022/04/10 11:52:09;;;;;;;4.87;2.60;;;;;;;;;;5025373;28;20734;-79
2022/04/10 11:54:37;;;;;;;4.93;3.13;;;;;;;;;;5016094;28;21013;-78
2022/04/10 11:57:05;;;;;;;2.10;1.90;;;;;;;;;;5012504;28;20777;-81
2022/04/10 11:59:34;;;;;;;3.73;2.57;;;;;;;;;;4990305;28;20471;-80
2022/04/10 12:02:02;;;;;;;4.50;2.13;;;;;;;;;;5007964;28;20450;-80
2022/04/10 12:04:29;;;;;;;3.93;2.20;;;;;;;;;;5007994;28;20447;-77
2022/04/10 12:07:13;;;;;;;5.77;2.20;;;;;;;;;;5010356;28;20791;-80
2022/04/10 12:09:40;;;;;;;5.60;2.90;;;;;;;;;;5028218;28;20524;-81
2022/04/10 12:12:07;;;;;;;2.70;2.47;;;;;;;;;;5032544;28;20450;-80
2022/04/10 12:14:35;;;;;;;4.70;2.40;;;;;;;;;;5029417;28;20859;-84
2022/04/10 12:17:02;;;;;;;5.03;2.40;;;;;;;;;;5018404;28;20532;-77
2022/04/10 12:19:30;;;;;;;10.10;3.10;;;;;;;;;;5021961;28;20454;-75
2022/04/10 12:21:57;;;;;;;3.13;2.60;;;;;;;;;;5012930;28;20450;-78
2022/04/10 12:24:26;;;;;;;5.10;2.60;;;;;;;;;;5030550;28;20456;-83
2022/04/10 12:26:53;;;;;;;4.00;2.10;;;;;;;;;;5030951;28;20453;-82
2022/04/10 12:29:21;;;;;;;6.80;3.17;;;;;;;;;;5030661;28;20569;-79
2022/04/10 12:31:49;;;;;;;4.23;2.90;;;;;;;;;;5031451;28;20504;-76
2022/04/10 12:34:17;;;;;;;4.03;2.53;;;;;;;;;;5032407;28;20481;-78
2022/04/10 12:36:47;;;;;;;3.90;2.40;;;;;;;;;;5031376;28;20837;-79
2022/04/10 12:39:29;;;;;;;5.37;2.53;;;;;;;;;;5000717;28;20454;-76
2022/04/10 12:42:02;;;;;;;3.60;2.60;;;;;;;;;;5000777;28;20921;-78
2022/04/10 12:44:30;;;;;;;4.47;2.73;;;;;;;;;;4995677;28;20466;-76
2022/04/10 12:46:57;;;;;;;4.17;2.57;;;;;;;;;;5014536;28;20443;-82
2022/04/10 12:49:25;;;;;;;4.90;1.90;;;;;;;;;;5014516;28;20910;-79
2022/04/10 12:51:54;;;;;;;4.47;2.40;;;;;;;;;;5014820;28;20447;-80
2022/04/10 12:54:21;;;;;;;3.33;2.80;;;;;;;;;;5027767;28;20493;-81
2022/04/10 12:56:53;;;;;;;5.10;2.57;;;;;;;;;;5036386;28;20442;-79
2022/04/10 12:59:22;;;;;;;3.60;2.43;;;;;;;;;;5035251;28;20492;-79
2022/04/10 13:01:53;;;;;;;3.27;2.20;;;;;;;;;;5021830;28;20795;-80
2022/04/10 13:04:29;;;;;;;5.03;2.33;;;;;;;;;;5003750;28;20455;-79
2022/04/10 13:06:56;;;;;;;4.20;2.90;;;;;;;;;;5013806;28;20968;-80
2022/04/10 13:09:23;;;;;;;5.43;2.53;;;;;;;;;;5013944;28;20459;-80
2022/04/10 13:11:53;;;;;;;4.97;2.97;;;;;;;;;;5014374;28;20801;-79
2022/04/10 13:14:20;;;;;;;3.93;3.07;;;;;;;;;;5014412;28;20479;-79
2022/04/10 13:16:49;;;;;;;2.67;2.37;;;;;;;;;;5025357;28;20835;-79
2022/04/10 13:19:17;;;;;;;5.63;2.60;;;;;;;;;;5036013;28;20470;-79
2022/04/10 13:21:45;;;;;;;5.20;2.90;;;;;;;;;;5018389;28;20444;-78
2022/04/10 13:24:13;;;;;;;3.10;2.50;;;;;;;;;;5003778;28;20908;-80
2022/04/10 13:26:41;;;;;;;3.10;2.30;;;;;;;;;;5021128;28;20462;-79
2022/04/10 13:29:10;;;;;;;3.83;2.57;;;;;;;;;;4995600;28;21002;-78
2022/04/10 13:31:37;;;;;;;4.43;2.77;;;;;;;;;;5013799;28;20812;-81
2022/04/10 13:34:06;;;;;;;3.50;2.83;;;;;;;;;;4996543;28;20478;-78
2022/04/10 13:36:34;;;;;;;2.80;2.47;;;;;;;;;;5014375;28;20540;-79
2022/04/10 13:39:01;;;;;;;3.00;2.07;;;;;;;;;;5004734;28;20569;-79
2022/04/10 13:41:28;;;;;;;3.57;2.13;;;;;;;;;;5035405;28;20485;-79
2022/04/10 13:43:57;;;;;;;3.00;2.03;;;;;;;;;;5035458;28;20448;-80
2022/04/10 13:46:24;;;;;;;2.77;2.33;;;;;;;;;;5021955;28;20443;-80
2022/04/10 13:48:51;;;;;;;4.03;2.77;;;;;;;;;;5021381;28;20450;-79
2022/04/10 13:51:20;;;;;;;7.90;2.60;;;;;;;;;;5013336;28;20450;-80
2022/04/10 13:53:47;;;;;;;4.70;2.40;;;;;;;;;;5013200;28;20493;-80
2022/04/10 13:56:14;;;;;;;4.10;2.23;;;;;;;;;;5012398;28;20447;-80
2022/04/10 13:58:41;;;;;;;3.27;2.70;;;;;;;;;;5013897;28;20474;-79
2022/04/10 14:01:09;;;;;;;4.70;2.43;;;;;;;;;;5019717;28;20760;-81
2022/04/10 14:03:36;;;;;;;3.03;2.60;;;;;;;;;;5035122;28;20437;-80
2022/04/10 14:06:03;;;;;;;3.40;2.80;;;;;;;;;;5035025;28;20473;-80
2022/04/10 14:08:32;;;;;;;5.10;2.97;;;;;;;;;;5022447;28;20468;-79
2022/04/10 14:10:59;;;;;;;4.40;2.53;;;;;;;;;;5020041;28;20536;-80
2022/04/10 14:13:26;;;;;;;3.53;2.50;;;;;;;;;;5013352;28;20844;-80
2022/04/10 14:15:53;;;;;;;3.03;2.33;;;;;;;;;;5012829;28;20803;-79
2022/04/10 14:18:20;;;;;;;5.17;2.70;;;;;;;;;;5012994;28;20470;-79
2022/04/10 14:20:48;;;;;;;4.20;2.93;;;;;;;;;;5013431;28;20849;-79
2022/04/10 14:23:15;;;;;;;5.70;2.60;;;;;;;;;;5017096;28;20473;-79
2022/04/10 14:25:44;;;;;;;3.20;2.07;;;;;;;;;;5034845;28;20446;-80
2022/04/10 14:28:11;;;;;;;3.40;2.70;;;;;;;;;;5034313;28;20485;-80
2022/04/10 14:30:38;;;;;;;4.53;2.73;;;;;;;;;;5023628;28;20814;-80
2022/04/10 14:33:06;;;;;;;2.70;2.20;;;;;;;;;;5020453;28;20482;-80
2022/04/10 14:35:33;;;;;;;2.73;2.50;;;;;;;;;;5030045;28;20453;-79
2022/04/10 14:38:00;;;;;;;3.77;2.60;;;;;;;;;;5031593;28;20466;-79
2022/04/10 14:40:27;;;;;;;3.37;2.30;;;;;;;;;;5032148;28;20442;-78
2022/04/10 14:42:55;;;;;;;3.07;2.20;;;;;;;;;;5032564;28;20446;-79
2022/04/10 14:45:22;;;;;;;2.37;2.17;;;;;;;;;;5031874;28;20453;-79
2022/04/10 14:47:50;;;;;;;2.37;2.00;;;;;;;;;;5028006;28;20854;-81
2022/04/10 14:50:17;;;;;;;3.50;2.60;;;;;;;;;;5019827;28;20449;-80
2022/04/10 14:52:44;;;;;;;2.20;1.90;;;;;;;;;;5015757;28;20447;-80
2022/04/10 14:55:11;;;;;;;2.70;2.37;;;;;;;;;;5012248;28;20943;-81